Time;durP1;ratioP1;P1;durP2;ratioP2;P2;SDS_P1;SDS_P2;PMS_P1;PMS_P2;Temp;Humidity;BMP_temperature;BMP_pressure;BME280_temperature;BME280_humidity;BME280_pressure;Samples;Min_cycle;Max_cycle;Signal;HPM_P1;HPM_P2
2024/03/22 00:01:11;;;;;;;16.63;11.90;;;;;;;14.72;53.25;98136.53;5023072;28;20267;-70
2024/03/22 00:03:36;;;;;;;16.50;11.83;;;;;;;14.69;53.11;98136.03;5021307;28;20218;-73
2024/03/22 00:06:01;;;;;;;14.87;11.07;;;;;;;14.61;53.28;98138.59;5031682;28;20231;-71
2024/03/22 00:08:27;;;;;;;20.10;11.87;;;;;;;14.54;53.42;98141.84;5039095;28;20184;-73
2024/03/22 00:10:53;;;;;;;15.63;11.00;;;;;;;14.44;53.46;98128.75;5029007;28;20236;-70
2024/03/22 00:13:18;;;;;;;15.70;11.50;;;;;;;14.45;53.36;98124.31;5028589;28;20179;-70
2024/03/22 00:15:45;;;;;;;12.50;10.03;;;;;;;14.51;53.55;98128.13;5028286;28;20202;-73
2024/03/22 00:18:10;;;;;;;15.70;11.00;;;;;;;14.58;53.28;98131.78;5034742;28;20205;-71
2024/03/22 00:20:36;;;;;;;19.73;12.00;;;;;;;14.43;53.35;98128.91;5028344;28;20517;-71
2024/03/22 00:23:02;;;;;;;15.30;12.03;;;;;;;14.24;54.04;98130.72;5035743;28;20190;-69
2024/03/22 00:25:27;;;;;;;15.90;12.27;;;;;;;14.28;54.13;98118.09;5032952;28;20307;-73
2024/03/22 00:27:53;;;;;;;15.00;10.80;;;;;;;14.38;53.59;98124.09;5023507;28;20333;-71
2024/03/22 00:30:19;;;;;;;19.27;12.30;;;;;;;14.43;53.42;98121.00;5028584;28;20188;-72
2024/03/22 00:32:45;;;;;;;15.90;12.03;;;;;;;14.24;53.28;98117.56;5028021;28;20227;-70
2024/03/22 00:35:10;;;;;;;15.70;11.57;;;;;;;14.24;53.47;98114.09;5028708;28;20484;-71
2024/03/22 00:37:36;;;;;;;17.33;11.30;;;;;;;14.26;53.26;98112.97;5027581;28;20203;-71
2024/03/22 00:40:01;;;;;;;17.90;11.03;;;;;;;14.32;53.42;98113.34;5033853;28;20183;-71
2024/03/22 00:42:27;;;;;;;11.90;10.23;;;;;;;14.37;53.18;98105.78;5027927;28;20211;-70
2024/03/22 00:44:52;;;;;;;12.07;10.57;;;;;;;14.32;53.01;98100.97;5028405;28;20172;-71
2024/03/22 00:47:18;;;;;;;15.10;11.00;;;;;;;14.23;53.13;98102.75;5027876;28;20264;-71
2024/03/22 00:49:43;;;;;;;15.10;11.03;;;;;;;13.98;53.72;98097.28;5003021;28;20230;-71
2024/03/22 00:52:09;;;;;;;13.10;10.77;;;;;;;13.89;53.54;98095.53;5029104;28;20837;-71
2024/03/22 00:54:34;;;;;;;13.27;10.13;;;;;;;13.91;53.73;98096.22;5026062;28;20187;-70
2024/03/22 00:56:59;;;;;;;13.43;10.57;;;;;;;13.88;53.48;98093.88;5028054;28;20271;-72
2024/03/22 00:59:25;;;;;;;16.30;11.00;;;;;;;13.85;53.74;98090.72;5027848;28;20196;-71
2024/03/22 01:01:50;;;;;;;12.67;9.70;;;;;;;13.87;53.77;98080.88;5028610;28;20199;-72
2024/03/22 01:04:16;;;;;;;16.97;11.10;;;;;;;13.88;53.74;98070.16;5032992;28;20687;-70
2024/03/22 01:06:41;;;;;;;15.00;10.43;;;;;;;13.93;53.51;98067.06;5029756;28;20397;-71
2024/03/22 01:09:07;;;;;;;13.93;10.43;;;;;;;13.95;53.44;98065.09;5027840;28;20544;-70
2024/03/22 01:11:32;;;;;;;14.03;9.80;;;;;;;13.95;53.12;98065.97;5033430;28;20239;-69
2024/03/22 01:13:58;;;;;;;12.33;10.70;;;;;;;14.04;53.31;98066.00;5031535;28;20250;-71
2024/03/22 01:16:23;;;;;;;14.70;10.70;;;;;;;14.03;53.36;98061.72;5039047;28;20353;-71
2024/03/22 01:18:49;;;;;;;16.40;11.03;;;;;;;13.94;53.53;98056.38;5031666;28;20314;-70
2024/03/22 01:21:14;;;;;;;20.27;11.47;;;;;;;13.95;53.45;98055.41;5041516;28;20569;-70
2024/03/22 01:23:40;;;;;;;15.67;11.00;;;;;;;13.87;53.49;98050.06;5047930;28;20771;-70
2024/03/22 01:26:05;;;;;;;14.93;10.20;;;;;;;13.70;53.05;98059.63;5041699;28;20282;-70
2024/03/22 01:28:30;;;;;;;12.80;9.93;;;;;;;13.56;53.84;98050.47;5032974;28;20212;-70
2024/03/22 01:30:56;;;;;;;12.93;10.50;;;;;;;13.60;53.38;98051.84;5037875;28;20235;-72
2024/03/22 01:33:21;;;;;;;15.23;10.93;;;;;;;13.70;53.55;98050.91;5036169;28;20244;-72
2024/03/22 01:35:47;;;;;;;13.80;10.03;;;;;;;13.69;53.59;98046.63;5040454;28;20283;-70
2024/03/22 01:38:12;;;;;;;13.00;10.20;;;;;;;13.72;53.58;98035.78;5034652;28;20294;-68
2024/03/22 01:40:38;;;;;;;11.50;10.10;;;;;;;13.75;53.22;98038.09;5031131;28;20175;-71
2024/03/22 01:43:03;;;;;;;23.00;10.03;;;;;;;13.70;53.28;98048.28;5034724;28;20190;-71
2024/03/22 01:45:32;;;;;;;12.30;10.60;;;;;;;13.50;53.47;98045.78;5035972;28;20198;-72
2024/03/22 01:47:57;;;;;;;14.27;10.37;;;;;;;13.43;53.52;98055.28;5027099;28;20207;-73
2024/03/22 01:50:23;;;;;;;13.33;10.07;;;;;;;13.39;53.68;98056.53;5038218;28;20477;-71
2024/03/22 01:52:49;;;;;;;15.50;11.30;;;;;;;13.29;53.62;98043.44;5028983;28;20269;-71
2024/03/22 01:55:14;;;;;;;12.80;10.53;;;;;;;13.31;53.63;98038.84;5029761;28;20534;-70
2024/03/22 01:57:40;;;;;;;13.07;10.37;;;;;;;13.32;53.64;98038.69;5030246;28;20230;-70
2024/03/22 02:00:08;;;;;;;13.30;9.87;;;;;;;13.32;53.43;98035.22;5029900;28;20268;-73
2024/03/22 02:02:34;;;;;;;13.67;10.03;;;;;;;13.28;53.49;98032.06;5030458;28;20270;-71
2024/03/22 02:04:59;;;;;;;14.63;10.93;;;;;;;13.16;54.01;98038.53;5031008;28;20427;-71
2024/03/22 02:07:25;;;;;;;12.20;10.13;;;;;;;13.30;53.30;98035.38;5030581;28;20473;-72
2024/03/22 02:09:50;;;;;;;13.37;10.07;;;;;;;13.31;53.08;98026.50;5024271;28;20183;-70
2024/03/22 02:12:16;;;;;;;13.90;10.60;;;;;;;13.26;53.01;98023.50;5037071;28;20199;-73
2024/03/22 02:14:41;;;;;;;16.73;10.30;;;;;;;13.16;53.52;98015.69;5032121;28;20720;-70
2024/03/22 02:17:06;;;;;;;14.87;10.57;;;;;;;13.17;53.41;98014.69;5035104;28;20238;-72
2024/03/22 02:19:32;;;;;;;17.63;11.40;;;;;;;13.30;53.27;98016.13;5032242;28;20179;-70
2024/03/22 02:21:57;;;;;;;14.90;11.53;;;;;;;13.39;53.51;98001.22;5036267;28;20571;-73
2024/03/22 02:24:23;;;;;;;12.10;10.13;;;;;;;13.23;53.55;98013.28;5036835;28;20277;-72
2024/03/22 02:26:48;;;;;;;12.00;10.03;;;;;;;13.06;53.71;98015.72;5051239;28;20215;-71
2024/03/22 02:29:14;;;;;;;13.07;10.40;;;;;;;13.10;53.36;98012.81;5044653;28;20219;-70
2024/03/22 02:31:39;;;;;;;16.60;10.80;;;;;;;13.13;53.25;98009.84;5053779;28;20207;-73
2024/03/22 02:34:04;;;;;;;14.00;10.50;;;;;;;13.12;52.80;98009.03;5042280;28;20663;-72
2024/03/22 02:36:30;;;;;;;16.10;9.97;;;;;;;13.01;53.29;98007.44;5043008;28;20646;-72
2024/03/22 02:38:55;;;;;;;13.90;10.87;;;;;;;12.99;53.75;98012.03;5060630;28;20237;-72
2024/03/22 02:41:21;;;;;;;15.60;10.57;;;;;;;13.03;53.40;98009.94;5055378;28;20176;-70
2024/03/22 02:43:47;;;;;;;14.03;10.50;;;;;;;13.05;53.15;98008.81;5046654;28;20187;-72
2024/03/22 02:46:12;;;;;;;14.83;10.53;;;;;;;13.02;53.55;98014.38;5044920;28;20449;-71
2024/03/22 02:48:38;;;;;;;12.27;10.30;;;;;;;13.01;53.20;97999.56;5047331;28;20188;-71
2024/03/22 02:51:03;;;;;;;14.73;10.27;;;;;;;12.95;53.47;98002.78;5048137;28;20238;-71
2024/03/22 02:53:29;;;;;;;13.90;10.17;;;;;;;12.87;53.59;98000.03;5046982;28;20550;-70
2024/03/22 02:55:54;;;;;;;13.47;10.17;;;;;;;12.84;53.44;97997.75;5038994;28;20187;-70
2024/03/22 02:58:20;;;;;;;14.87;11.10;;;;;;;12.80;53.87;97994.56;5035226;28;20305;-69
2024/03/22 03:00:45;;;;;;;14.23;10.93;;;;;;;12.89;54.30;97984.94;5031837;28;20637;-70
2024/03/22 03:03:11;;;;;;;17.83;11.70;;;;;;;12.82;54.13;97978.63;5034997;28;20207;-69
2024/03/22 03:05:36;;;;;;;15.03;11.23;;;;;;;12.68;54.61;97980.78;5026493;28;20266;-72
2024/03/22 03:08:03;;;;;;;12.60;10.60;;;;;;;12.73;55.14;97983.78;5026754;28;20297;-72
2024/03/22 03:10:28;;;;;;;16.30;11.50;;;;;;;12.79;54.47;97985.00;5025040;28;20663;-69
2024/03/22 03:12:54;;;;;;;19.00;11.80;;;;;;;12.80;54.63;97991.09;5028809;28;20549;-72
2024/03/22 03:15:19;;;;;;;13.53;11.30;;;;;;;12.72;54.41;97983.94;5029811;28;20680;-70
2024/03/22 03:17:45;;;;;;;13.17;11.03;;;;;;;12.80;54.59;97986.66;5028781;28;20207;-69
2024/03/22 03:20:13;;;;;;;12.63;10.60;;;;;;;12.84;53.29;97981.94;5029574;28;20262;-71
2024/03/22 03:22:39;;;;;;;13.00;10.90;;;;;;;12.87;54.36;97976.38;5029256;28;20180;-70
2024/03/22 03:25:05;;;;;;;14.53;11.17;;;;;;;12.86;54.38;97979.97;5029293;28;20477;-71
2024/03/22 03:27:30;;;;;;;13.97;10.17;;;;;;;12.89;54.68;97975.28;5028888;28;20442;-70
2024/03/22 03:29:56;;;;;;;20.33;11.50;;;;;;;12.86;54.51;97972.09;5028177;28;20187;-72
2024/03/22 03:32:25;;;;;;;13.77;10.30;;;;;;;12.81;54.23;97976.97;5031197;28;20602;-72
2024/03/22 03:34:51;;;;;;;15.97;11.10;;;;;;;12.78;54.19;97972.00;5028730;28;20539;-71
2024/03/22 03:37:16;;;;;;;14.73;11.00;;;;;;;12.87;54.26;97965.84;5037095;28;20445;-68
2024/03/22 03:39:42;;;;;;;17.70;10.80;;;;;;;12.85;54.22;97960.75;5029273;28;20207;-69
2024/03/22 03:42:07;;;;;;;14.47;10.83;;;;;;;12.81;54.17;97963.81;5029143;28;20199;-73
2024/03/22 03:44:33;;;;;;;14.00;10.80;;;;;;;12.86;54.33;97964.19;5028575;28;20183;-71
2024/03/22 03:47:00;;;;;;;17.50;10.70;;;;;;;12.89;54.07;97963.91;5037020;28;20234;-71
2024/03/22 03:49:26;;;;;;;14.03;10.73;;;;;;;12.92;54.06;97963.63;5033871;28;20645;-74
2024/03/22 03:51:51;;;;;;;12.80;10.00;;;;;;;12.83;53.86;97965.31;5030786;28;20465;-71
2024/03/22 03:54:16;;;;;;;16.80;10.43;;;;;;;12.80;53.90;97960.34;5026976;28;20178;-69
2024/03/22 03:56:42;;;;;;;14.17;10.53;;;;;;;12.77;54.21;97952.78;5024649;28;20234;-70
2024/03/22 03:59:07;;;;;;;15.50;11.47;;;;;;;12.74;54.34;97951.25;5038785;28;20269;-71
2024/03/22 04:01:33;;;;;;;17.70;11.43;;;;;;;12.69;54.44;97950.88;5029868;28;20769;-70
2024/03/22 04:03:58;;;;;;;14.20;10.67;;;;;;;12.62;54.75;97952.44;5030663;28;20410;-71
2024/03/22 04:06:24;;;;;;;15.07;11.23;;;;;;;12.64;54.74;97949.69;5028636;28;20663;-71
2024/03/22 04:08:49;;;;;;;17.00;10.83;;;;;;;12.66;54.44;97950.34;5026115;28;20184;-70
2024/03/22 04:11:14;;;;;;;13.60;10.67;;;;;;;12.69;54.32;97956.16;5028620;28;20231;-73
2024/03/22 04:13:40;;;;;;;13.60;11.23;;;;;;;12.68;54.35;97957.13;5028380;28;20246;-70
2024/03/22 04:16:08;;;;;;;12.37;10.47;;;;;;;12.65;53.77;97954.78;5038362;28;20676;-71
2024/03/22 04:18:33;;;;;;;14.20;11.00;;;;;;;12.66;53.80;97947.72;5038270;28;20199;-71
2024/03/22 04:20:59;;;;;;;13.87;11.60;;;;;;;12.58;54.30;97951.91;5028580;28;21139;-72
2024/03/22 04:23:25;;;;;;;13.90;10.43;;;;;;;12.54;54.38;97954.97;5029203;28;20267;-72
2024/03/22 04:25:58;;;;;;;14.47;10.63;;;;;;;12.58;54.63;97957.16;5028229;28;20179;-70
2024/03/22 04:28:24;;;;;;;14.00;11.07;;;;;;;12.62;54.53;97952.44;5022630;28;20688;-71
2024/03/22 04:31:10;;;;;;;17.50;11.17;;;;;;;12.41;54.83;97950.88;5032453;28;20439;-70
2024/03/22 04:33:36;;;;;;;20.53;11.60;;;;;;;12.35;55.25;97955.91;5028936;28;20699;-70
2024/03/22 04:36:02;;;;;;;13.37;10.27;;;;;;;12.47;55.36;97953.91;5029461;28;20509;-71
2024/03/22 04:38:28;;;;;;;16.23;10.73;;;;;;;12.52;55.39;97957.75;5036011;28;20539;-71
2024/03/22 04:40:54;;;;;;;15.20;10.93;;;;;;;12.52;55.62;97955.13;5028006;28;20183;-69
2024/03/22 04:43:20;;;;;;;16.57;10.90;;;;;;;12.63;55.75;97958.53;5028840;28;20201;-71
2024/03/22 04:45:46;;;;;;;12.30;10.73;;;;;;;12.70;55.32;97960.44;5041570;28;20172;-73
2024/03/22 04:48:17;;;;;;;13.80;10.90;;;;;;;12.72;54.96;97961.13;5028025;28;20449;-72
2024/03/22 04:50:43;;;;;;;14.03;10.73;;;;;;;12.72;54.73;97969.00;5036969;28;20951;-71
2024/03/22 04:53:08;;;;;;;14.43;11.47;;;;;;;12.61;55.53;97963.91;5029760;28;20422;-72
2024/03/22 04:55:34;;;;;;;16.03;10.33;;;;;;;12.65;55.35;97962.66;5032087;28;20190;-70
2024/03/22 04:58:00;;;;;;;13.63;11.00;;;;;;;12.64;55.59;97960.19;5031598;28;20629;-70
2024/03/22 05:00:26;;;;;;;13.53;10.30;;;;;;;12.68;55.72;97959.75;5034716;28;20179;-71
2024/03/22 05:02:52;;;;;;;15.30;11.10;;;;;;;12.72;56.04;97963.75;5042471;28;20407;-70
2024/03/22 05:05:17;;;;;;;13.00;10.30;;;;;;;12.79;55.82;97966.59;5027548;28;20188;-70
2024/03/22 05:07:43;;;;;;;15.20;11.40;;;;;;;12.70;56.50;97960.44;5028796;28;20437;-70
2024/03/22 05:10:09;;;;;;;13.97;9.97;;;;;;;12.78;56.45;97959.69;5031972;28;21144;-70
2024/03/22 05:12:35;;;;;;;12.20;10.67;;;;;;;12.83;56.00;97959.25;5030840;28;20214;-72
2024/03/22 05:15:00;;;;;;;14.43;11.00;;;;;;;12.88;56.41;97960.47;5030715;28;20769;-73
2024/03/22 05:17:26;;;;;;;13.40;10.20;;;;;;;12.99;55.92;97959.41;5034570;28;20212;-70
2024/03/22 05:19:52;;;;;;;12.70;9.50;;;;;;;13.05;55.66;97957.97;5031190;28;20658;-70
2024/03/22 05:22:20;;;;;;;12.80;10.27;;;;;;;13.05;55.61;97948.28;5027469;28;20188;-68
2024/03/22 05:24:45;;;;;;;14.07;10.20;;;;;;;13.05;56.16;97952.72;5027002;28;20473;-71
2024/03/22 05:27:11;;;;;;;15.47;10.13;;;;;;;13.06;55.78;97955.22;5030243;28;20965;-70
2024/03/22 05:29:36;;;;;;;13.30;9.90;;;;;;;13.06;55.86;97960.47;5034391;28;20550;-72
2024/03/22 05:32:03;;;;;;;14.90;10.60;;;;;;;12.98;56.31;97943.78;5032204;28;20246;-70
2024/03/22 05:34:29;;;;;;;11.83;9.57;;;;;;;13.09;56.13;97948.00;5030514;28;20180;-71
2024/03/22 05:36:55;;;;;;;12.00;9.20;;;;;;;13.15;55.94;97939.50;5030485;28;20979;-69
2024/03/22 05:39:20;;;;;;;12.30;9.70;;;;;;;13.12;56.01;97937.16;5031482;28;20420;-72
2024/03/22 05:41:46;;;;;;;14.13;10.10;;;;;;;13.10;56.09;97933.88;5029520;28;20178;-70
2024/03/22 05:44:11;;;;;;;10.67;9.23;;;;;;;13.08;55.68;97925.28;5031204;28;20549;-70
2024/03/22 05:46:37;;;;;;;14.83;9.07;;;;;;;13.10;56.18;97928.59;5044218;28;20199;-69
2024/03/22 05:49:02;;;;;;;12.07;9.00;;;;;;;13.18;56.13;97926.03;5031772;28;20697;-71
2024/03/22 05:51:28;;;;;;;15.00;9.37;;;;;;;13.22;55.82;97916.88;5037372;28;20246;-71
2024/03/22 05:53:53;;;;;;;11.40;9.73;;;;;;;13.20;55.99;97918.81;5030096;28;20649;-71
2024/03/22 05:56:19;;;;;;;14.57;10.37;;;;;;;13.15;56.07;97913.16;5026455;28;20190;-71
2024/03/22 05:58:44;;;;;;;13.57;9.27;;;;;;;13.20;55.72;97910.91;5030550;28;20180;-73
2024/03/22 06:01:09;;;;;;;13.77;10.07;;;;;;;13.29;55.87;97907.38;5041689;28;20614;-71
2024/03/22 06:03:35;;;;;;;10.77;9.40;;;;;;;13.37;55.76;97914.50;5035571;28;20624;-73
2024/03/22 06:06:01;;;;;;;15.57;11.13;;;;;;;13.26;56.14;97909.47;5032267;28;20247;-71
2024/03/22 06:08:26;;;;;;;13.10;10.40;;;;;;;13.20;56.58;97903.03;5030865;28;20262;-70
2024/03/22 06:10:52;;;;;;;16.10;13.10;;;;;;;13.27;56.18;97903.25;5034040;28;20211;-72
2024/03/22 06:13:18;;;;;;;13.40;10.00;;;;;;;13.31;55.87;97902.78;5029432;28;20476;-70
2024/03/22 06:15:47;;;;;;;14.07;10.60;;;;;;;13.30;56.09;97902.91;5029939;28;20442;-70
2024/03/22 06:18:12;;;;;;;12.00;10.17;;;;;;;13.43;55.88;97895.47;5037106;28;20234;-71
2024/03/22 06:20:38;;;;;;;14.47;10.27;;;;;;;13.50;56.00;97906.22;5036322;28;20433;-70
2024/03/22 06:23:03;;;;;;;16.10;10.90;;;;;;;13.59;56.19;97901.84;5031833;28;20600;-72
2024/03/22 06:25:29;;;;;;;17.80;10.73;;;;;;;13.67;55.96;97896.66;5029435;28;20190;-73
2024/03/22 06:27:55;;;;;;;13.10;10.10;;;;;;;13.61;56.66;97899.88;5011683;28;20733;-73
2024/03/22 06:30:20;;;;;;;14.77;9.77;;;;;;;13.78;56.23;97898.19;5028381;28;20419;-69
2024/03/22 06:32:46;;;;;;;14.60;10.30;;;;;;;13.89;55.69;97902.38;5028904;28;20291;-71
2024/03/22 06:35:11;;;;;;;17.33;12.20;;;;;;;13.92;55.35;97900.25;5029714;28;20199;-71
2024/03/22 06:37:38;;;;;;;17.43;10.20;;;;;;;14.07;55.13;97900.47;5029748;28;20279;-72
2024/03/22 06:40:05;;;;;;;12.70;10.43;;;;;;;14.25;54.95;97900.38;5030399;28;20191;-72
2024/03/22 06:42:30;;;;;;;15.40;10.57;;;;;;;14.36;54.75;97893.19;5029326;28;20417;-72
2024/03/22 06:44:55;;;;;;;18.20;10.60;;;;;;;14.47;54.80;97886.78;5031080;28;20414;-75
2024/03/22 06:47:21;;;;;;;11.63;10.27;;;;;;;14.68;54.96;97891.66;5029147;28;20230;-73
2024/03/22 06:49:47;;;;;;;16.83;10.90;;;;;;;14.86;54.35;97892.34;5029738;28;20704;-73
2024/03/22 06:52:12;;;;;;;13.87;10.60;;;;;;;15.05;54.00;97887.75;5029011;28;20652;-72
2024/03/22 06:54:38;;;;;;;21.83;10.53;;;;;;;15.18;53.42;97890.72;5040533;28;20278;-73
2024/03/22 06:57:03;;;;;;;15.50;10.47;;;;;;;15.26;53.37;97894.34;5030032;28;20731;-73
2024/03/22 06:59:29;;;;;;;13.70;10.43;;;;;;;15.34;53.95;97889.06;5027611;28;20255;-74
2024/03/22 07:01:54;;;;;;;15.87;11.17;;;;;;;15.48;53.68;97888.41;5022790;28;20184;-75
2024/03/22 07:04:19;;;;;;;19.90;12.87;;;;;;;15.66;53.54;97879.44;5028847;28;20191;-73
2024/03/22 07:06:45;;;;;;;18.53;10.37;;;;;;;15.82;52.17;97887.34;5010966;28;20204;-74
2024/03/22 07:09:11;;;;;;;13.83;9.80;;;;;;;15.97;51.73;97881.38;5036736;28;20638;-74
2024/03/22 07:11:36;;;;;;;11.27;9.40;;;;;;;16.05;50.96;97881.34;5014604;28;20884;-72
2024/03/22 07:14:02;;;;;;;16.63;11.83;;;;;;;16.17;51.28;97883.63;5019529;28;20181;-73
2024/03/22 07:16:27;;;;;;;17.13;9.70;;;;;;;16.29;50.83;97876.94;5027511;28;20270;-74
2024/03/22 07:18:52;;;;;;;14.63;10.30;;;;;;;16.42;50.72;97879.88;5022115;28;20191;-73
2024/03/22 07:21:18;;;;;;;13.90;9.60;;;;;;;16.54;49.93;97877.66;5028362;28;20222;-73
2024/03/22 07:23:43;;;;;;;12.80;9.00;;;;;;;16.69;49.79;97874.28;5024582;28;20219;-74
2024/03/22 07:26:09;;;;;;;14.23;9.80;;;;;;;16.87;49.06;97874.00;5021683;28;20266;-74
2024/03/22 07:28:34;;;;;;;13.50;9.97;;;;;;;17.11;49.12;97870.34;5017898;28;20271;-73
2024/03/22 07:31:00;;;;;;;15.23;10.83;;;;;;;17.29;48.40;97864.72;5021407;28;20673;-74
2024/03/22 07:33:25;;;;;;;15.40;11.10;;;;;;;17.49;47.87;97861.59;5006217;28;20539;-75
2024/03/22 07:35:51;;;;;;;15.20;12.10;;;;;;;17.63;47.48;97860.78;5015554;28;20211;-73
2024/03/22 07:38:17;;;;;;;14.23;11.30;;;;;;;17.82;46.52;97850.63;5019118;28;20287;-72
2024/03/22 07:40:42;;;;;;;9.47;8.47;;;;;;;17.95;45.64;97853.47;5021122;28;20514;-73
2024/03/22 07:43:07;;;;;;;11.57;9.70;;;;;;;18.08;45.61;97855.47;5025232;28;20665;-74
2024/03/22 07:45:37;;;;;;;13.47;10.30;;;;;;;18.19;45.15;97848.91;5025355;28;20218;-75
2024/03/22 07:48:02;;;;;;;10.23;8.77;;;;;;;18.30;44.91;97842.31;5040513;28;20292;-75
2024/03/22 07:50:28;;;;;;;12.63;8.03;;;;;;;18.38;44.76;97846.69;5021516;28;20827;-74
2024/03/22 07:52:54;;;;;;;14.00;8.23;;;;;;;18.50;44.20;97847.84;5021198;28;20214;-74
2024/03/22 07:55:19;;;;;;;10.67;8.30;;;;;;;18.62;43.95;97852.66;5021640;28;20188;-73
2024/03/22 07:57:45;;;;;;;11.47;7.73;;;;;;;18.68;43.17;97846.56;5016976;28;20259;-73
2024/03/22 08:00:11;;;;;;;10.07;7.77;;;;;;;18.79;43.34;97848.72;5019262;28;20219;-75
2024/03/22 08:02:36;;;;;;;10.50;8.00;;;;;;;18.91;43.27;97850.88;5016058;28;20430;-73
2024/03/22 08:05:02;;;;;;;8.40;7.47;;;;;;;19.05;42.58;97843.91;5020096;28;20192;-73
2024/03/22 08:07:29;;;;;;;10.60;7.30;;;;;;;19.18;41.97;97844.81;5018769;28;20235;-74
2024/03/22 08:09:55;;;;;;;8.97;8.03;;;;;;;19.33;41.79;97844.75;5022910;28;20463;-73
2024/03/22 08:12:21;;;;;;;11.20;7.50;;;;;;;19.49;40.94;97851.59;5019010;28;20451;-73
2024/03/22 08:14:46;;;;;;;8.50;6.80;;;;;;;19.74;40.99;97840.50;5025361;28;20755;-73
2024/03/22 08:17:12;;;;;;;10.83;6.93;;;;;;;20.02;40.29;97849.47;5019571;28;20216;-73
2024/03/22 08:19:38;;;;;;;8.50;6.90;;;;;;;20.31;39.78;97837.72;5023327;28;20230;-75
2024/03/22 08:22:03;;;;;;;11.93;7.13;;;;;;;20.54;39.01;97833.91;5025442;28;20717;-76
2024/03/22 08:24:29;;;;;;;9.27;6.83;;;;;;;20.84;38.58;97846.88;5026920;28;20180;-72
2024/03/22 08:26:55;;;;;;;10.40;7.27;;;;;;;21.08;37.76;97839.31;5020905;28;20199;-73
2024/03/22 08:29:21;;;;;;;8.30;6.70;;;;;;;21.33;37.25;97827.03;5002788;28;20192;-76
2024/03/22 08:31:46;;;;;;;11.00;7.17;;;;;;;21.49;36.33;97822.28;5020465;28;20458;-73
2024/03/22 08:34:12;;;;;;;14.10;6.80;;;;;;;21.84;35.82;97815.88;5017899;28;20573;-74
2024/03/22 08:36:37;;;;;;;10.90;7.17;;;;;;;22.23;35.51;97812.22;5025698;28;20206;-74
2024/03/22 08:39:05;;;;;;;10.27;6.80;;;;;;;22.53;34.85;97814.38;5009849;28;20271;-75
2024/03/22 08:41:30;;;;;;;11.73;6.87;;;;;;;22.53;34.21;97818.88;5024461;28;20345;-73
2024/03/22 08:43:57;;;;;;;9.73;6.87;;;;;;;22.59;34.15;97812.69;5014770;28;20427;-74
2024/03/22 08:46:23;;;;;;;9.47;6.27;;;;;;;22.57;34.64;97805.91;5018649;28;20180;-74
2024/03/22 08:48:48;;;;;;;11.10;6.50;;;;;;;22.53;34.52;97809.03;5022321;28;20510;-74
2024/03/22 08:51:14;;;;;;;8.50;6.80;;;;;;;22.40;34.65;97803.75;5020235;28;20470;-73
2024/03/22 08:53:39;;;;;;;7.00;5.40;;;;;;;22.40;34.27;97806.41;5029294;28;20187;-76
2024/03/22 08:56:05;;;;;;;10.83;6.40;;;;;;;22.27;34.16;97798.47;4989934;28;20190;-75
2024/03/22 08:58:30;;;;;;;8.27;5.70;;;;;;;22.06;34.45;97801.22;4993030;28;20660;-73
2024/03/22 09:00:55;;;;;;;12.53;6.80;;;;;;;21.92;33.99;97797.81;5009983;28;20208;-75
2024/03/22 09:03:21;;;;;;;13.77;7.47;;;;;;;21.73;34.33;97798.69;5023073;28;20208;-75
2024/03/22 09:05:47;;;;;;;11.00;6.90;;;;;;;21.70;34.79;97796.41;5016202;28;20239;-73
2024/03/22 09:08:12;;;;;;;11.97;6.30;;;;;;;21.84;34.74;97791.88;5022723;28;20325;-73
2024/03/22 09:10:37;;;;;;;12.77;6.70;;;;;;;21.90;35.03;97791.84;5030666;28;20532;-73
2024/03/22 09:13:03;;;;;;;8.33;6.50;;;;;;;21.99;34.14;97788.94;5030537;28;20215;-74
2024/03/22 09:15:28;;;;;;;12.13;6.40;;;;;;;22.24;34.28;97797.06;5024130;28;20196;-75
2024/03/22 09:17:54;;;;;;;9.27;6.27;;;;;;;22.55;33.52;97793.63;5024534;28;20231;-75
2024/03/22 09:20:20;;;;;;;7.70;5.90;;;;;;;22.46;33.47;97792.22;5018495;28;20181;-72
2024/03/22 09:22:46;;;;;;;8.93;5.90;;;;;;;22.55;32.56;97790.94;5024028;28;20258;-73
2024/03/22 09:25:11;;;;;;;7.10;5.00;;;;;;;22.69;32.37;97785.50;5018741;28;20185;-73
2024/03/22 09:27:37;;;;;;;6.73;4.87;;;;;;;22.87;32.08;97771.41;5014354;28;20465;-73
2024/03/22 09:30:04;;;;;;;7.63;4.43;;;;;;;23.08;31.31;97775.53;5024313;28;20183;-72
2024/03/22 09:32:29;;;;;;;7.87;5.27;;;;;;;23.27;30.77;97767.59;5023889;28;20201;-73
2024/03/22 09:34:55;;;;;;;7.20;4.70;;;;;;;23.52;31.11;97756.81;5029536;28;20434;-74
2024/03/22 09:37:20;;;;;;;4.70;3.70;;;;;;;23.71;31.55;97764.84;5017785;28;20917;-71
2024/03/22 09:39:46;;;;;;;5.50;4.17;;;;;;;24.07;31.18;97758.66;5017202;28;20196;-70
2024/03/22 09:42:18;;;;;;;7.30;4.00;;;;;;;24.54;30.44;97757.22;5025149;28;20286;-71
2024/03/22 09:44:48;;;;;;;6.53;3.70;;;;;;;24.98;31.22;97751.59;5017011;28;20179;-72
2024/03/22 09:47:17;;;;;;;7.10;3.83;;;;;;;25.41;30.32;97746.94;5023133;28;20443;-72
2024/03/22 09:49:46;;;;;;;8.83;3.87;;;;;;;25.48;29.39;97736.88;5020400;28;20415;-71
2024/03/22 09:52:12;;;;;;;11.83;4.37;;;;;;;25.50;28.56;97734.78;5028155;28;20514;-70
2024/03/22 09:54:38;;;;;;;6.33;4.27;;;;;;;25.45;29.20;97740.88;5019488;28;20419;-72
2024/03/22 09:57:04;;;;;;;7.23;3.90;;;;;;;25.53;29.11;97733.50;5024659;28;20899;-72
2024/03/22 09:59:29;;;;;;;4.63;3.87;;;;;;;25.70;28.87;97731.72;5022264;28;20184;-71
2024/03/22 10:01:56;;;;;;;5.17;3.77;;;;;;;25.74;29.18;97721.31;5018791;28;20179;-71
2024/03/22 10:04:22;;;;;;;6.33;4.20;;;;;;;25.61;26.93;97715.16;5022753;28;20176;-71
2024/03/22 10:06:48;;;;;;;7.57;3.67;;;;;;;25.68;28.57;97716.91;5020302;28;20855;-70
2024/03/22 10:09:13;;;;;;;5.97;3.97;;;;;;;25.76;28.04;97709.31;5029559;28;20638;-72
2024/03/22 10:11:39;;;;;;;7.13;3.30;;;;;;;25.86;27.72;97705.97;5037929;28;20299;-72
2024/03/22 10:14:04;;;;;;;5.37;4.50;;;;;;;25.76;27.33;97713.84;5030598;28;20226;-70
2024/03/22 10:16:34;;;;;;;8.90;3.60;;;;;;;25.71;28.26;97706.50;5033217;28;20191;-71
2024/03/22 10:19:00;;;;;;;8.73;4.23;;;;;;;25.66;27.62;97703.72;5036877;28;20206;-71
2024/03/22 10:21:27;;;;;;;7.17;3.87;;;;;;;25.27;27.35;97700.72;5036267;28;20418;-71
2024/03/22 10:23:53;;;;;;;7.10;4.70;;;;;;;24.95;26.67;97701.94;5029995;28;20609;-72
2024/03/22 10:26:18;;;;;;;6.10;4.07;;;;;;;24.81;27.44;97697.88;5029846;28;20426;-74
2024/03/22 10:28:47;;;;;;;7.53;3.97;;;;;;;24.66;28.25;97691.06;5031912;28;20446;-72
2024/03/22 10:31:14;;;;;;;5.47;4.10;;;;;;;24.78;29.01;97683.06;5030260;28;20752;-71
2024/03/22 10:33:40;;;;;;;5.67;4.00;;;;;;;24.93;28.85;97687.13;5029652;28;20430;-72
2024/03/22 10:36:06;;;;;;;5.43;4.50;;;;;;;24.89;29.10;97678.75;5030410;28;20429;-72
2024/03/22 10:38:32;;;;;;;10.10;4.87;;;;;;;25.02;29.56;97674.19;5029650;28;20438;-72
2024/03/22 10:41:00;;;;;;;6.10;4.60;;;;;;;25.15;29.39;97669.38;5028674;28;21185;-72
2024/03/22 10:43:25;;;;;;;4.50;3.97;;;;;;;25.28;29.08;97670.19;5014075;28;20778;-71
2024/03/22 10:45:51;;;;;;;8.03;5.23;;;;;;;24.97;28.15;97664.97;5033879;28;20518;-72
2024/03/22 10:48:18;;;;;;;5.50;4.17;;;;;;;24.83;28.60;97655.53;5028310;28;20721;-72
2024/03/22 10:50:43;;;;;;;5.20;3.83;;;;;;;24.90;28.68;97655.44;5024719;28;20472;-71
2024/03/22 10:53:19;;;;;;;5.27;4.47;;;;;;;24.98;28.59;97653.22;5031081;28;20548;-74
2024/03/22 10:55:46;;;;;;;6.40;4.50;;;;;;;25.08;27.44;97646.44;5016190;28;20203;-72
2024/03/22 10:58:20;;;;;;;6.17;4.27;;;;;;;25.13;28.17;97642.03;5022142;28;20577;-72
2024/03/22 11:00:46;;;;;;;6.73;4.10;;;;;;;25.35;27.80;97635.19;5026033;28;20418;-73
2024/03/22 11:03:15;;;;;;;4.10;3.67;;;;;;;25.80;27.30;97636.34;5021093;28;20434;-72
2024/03/22 11:05:47;;;;;;;4.70;3.00;;;;;;;26.37;26.83;97627.41;5019490;28;20184;-71
2024/03/22 11:08:13;;;;;;;3.70;2.60;;;;;;;26.83;25.45;97620.06;5027732;28;20469;-73
2024/03/22 11:10:39;;;;;;;4.20;2.50;;;;;;;27.08;23.59;97621.47;5037019;28;20544;-72
2024/03/22 11:13:06;;;;;;;3.93;2.67;;;;;;;27.25;24.41;97624.09;5029065;28;20553;-73
2024/03/22 11:15:32;;;;;;;4.17;2.80;;;;;;;27.43;23.38;97614.88;5039685;28;20192;-73